createdAt,value
2022-08-14T00:00:16.333Z,97587.41
2022-08-14T00:03:05.205Z,97581.06
2022-08-14T00:05:58.419Z,97587.78
2022-08-14T00:08:49.189Z,97581.78
2022-08-14T00:11:32.203Z,97600.81
2022-08-14T00:14:21.204Z,97608.41
2022-08-14T00:17:05.078Z,97601.22
2022-08-14T00:19:53.829Z,97613.16
2022-08-14T00:22:56.986Z,97609.19
2022-08-14T00:25:42.237Z,97611.56
2022-08-14T00:28:35.177Z,97619.13
2022-08-14T00:31:35.377Z,97621.06
2022-08-14T00:34:36.489Z,97622.63
2022-08-14T00:37:33.215Z,97626.28
2022-08-14T00:40:33.132Z,97626.34
2022-08-14T00:43:17.423Z,97629.84
2022-08-14T00:46:08.047Z,97633.00
2022-08-14T00:48:58.009Z,97638.25
2022-08-14T00:51:41.083Z,97640.84
2022-08-14T00:54:29.853Z,97646.88
2022-08-14T00:57:19.937Z,97660.81
2022-08-14T01:00:03.090Z,97658.44
2022-08-14T01:02:53.737Z,97659.53
2022-08-14T01:05:51.497Z,97670.34
2022-08-14T01:08:51.295Z,97674.78
2022-08-14T01:11:41.176Z,97672.72
2022-08-14T01:14:36.106Z,97675.72
2022-08-14T01:17:24.505Z,97669.78
2022-08-14T01:20:27.588Z,97669.34
2022-08-14T01:23:21.702Z,97671.03
2022-08-14T01:26:12.205Z,97683.22
2022-08-14T01:29:44.642Z,97678.09
2022-08-14T01:32:30.953Z,97682.25
2022-08-14T01:36:04.942Z,97685.00
2022-08-14T01:38:26.076Z,97685.41
2022-08-14T01:41:31.575Z,97693.28
2022-08-14T01:44:32.139Z,97684.75
2022-08-14T01:47:21.695Z,97685.91
2022-08-14T01:50:14.348Z,97692.72
2022-08-14T01:52:58.565Z,97708.81
2022-08-14T01:55:49.088Z,97705.84
2022-08-14T01:58:32.308Z,97703.56
2022-08-14T02:01:22.920Z,97706.41
2022-08-14T02:04:20.453Z,97711.44
2022-08-14T02:07:17.943Z,97708.41
2022-08-14T02:10:17.988Z,97716.13
2022-08-14T02:13:07.450Z,97713.13
2022-08-14T02:15:50.313Z,97717.59
2022-08-14T02:18:38.953Z,97712.88
2022-08-14T02:21:28.101Z,97721.63
2022-08-14T02:24:39.349Z,97726.78
2022-08-14T02:28:23.956Z,97725.19
2022-08-14T02:30:33.923Z,97731.69
2022-08-14T02:33:23.307Z,97729.31
2022-08-14T02:37:02.871Z,97730.13
2022-08-14T02:39:09.404Z,97726.88
2022-08-14T02:41:59.922Z,97727.28
2022-08-14T02:44:49.071Z,97727.53
2022-08-14T02:47:38.847Z,97728.81
2022-08-14T02:50:29.338Z,97731.31
2022-08-14T02:53:22.957Z,97733.28
2022-08-14T02:56:30.005Z,97730.13
2022-08-14T02:59:15.194Z,97735.28
2022-08-14T03:01:58.282Z,97740.09
2022-08-14T03:04:47.102Z,97746.41
2022-08-14T03:07:36.178Z,97742.41
2022-08-14T03:10:33.337Z,97745.22
2022-08-14T03:13:23.168Z,97748.03
2022-08-14T03:16:09.063Z,97749.94
2022-08-14T03:19:09.191Z,97748.44
2022-08-14T03:21:56.207Z,97753.88
2022-08-14T03:24:45.951Z,97750.19
2022-08-14T03:27:35.309Z,97751.47
2022-08-14T03:30:43.962Z,97754.34
2022-08-14T03:33:26.558Z,97755.16
2022-08-14T03:37:37.467Z,97750.59
2022-08-14T03:39:24.155Z,97741.59
2022-08-14T03:42:18.877Z,97757.53
2022-08-14T03:45:19.825Z,97746.91
2022-08-14T03:48:29.504Z,97742.63
2022-08-14T03:51:22.210Z,97745.75
2022-08-14T03:54:06.919Z,97746.94
2022-08-14T03:56:50.269Z,97753.84
2022-08-14T03:59:38.970Z,97751.66
2022-08-14T04:02:32.217Z,97746.91
2022-08-14T04:05:17.237Z,97745.59
2022-08-14T04:08:22.549Z,97743.38
2022-08-14T04:11:08.041Z,97747.78
2022-08-14T04:13:52.375Z,97748.66
2022-08-14T04:16:41.247Z,97748.97
2022-08-14T04:19:28.013Z,97751.06
2022-08-14T04:22:16.937Z,97748.41
2022-08-14T04:25:11.153Z,97752.50
2022-08-14T04:28:02.344Z,97767.13
2022-08-14T04:30:59.599Z,97756.41
2022-08-14T04:33:47.966Z,97756.78
2022-08-14T04:36:31.104Z,97756.88
2022-08-14T04:39:46.683Z,97753.69
2022-08-14T04:42:51.592Z,97756.41
2022-08-14T04:45:51.038Z,97766.47
2022-08-14T04:48:43.732Z,97758.06
2022-08-14T04:51:37.547Z,97761.19
2022-08-14T04:54:36.218Z,97747.72
2022-08-14T04:57:20.306Z,97760.34
2022-08-14T05:00:16.353Z,97756.97
2022-08-14T05:03:00.244Z,97758.59
2022-08-14T05:05:51.152Z,97758.38
2022-08-14T05:08:59.651Z,97752.25
2022-08-14T05:11:44.240Z,97752.03
2022-08-14T05:14:46.016Z,97749.03
2022-08-14T05:17:44.163Z,97754.00
2022-08-14T05:21:56.891Z,97758.44
2022-08-14T05:23:48.235Z,97759.28
2022-08-14T05:26:36.939Z,97756.63
2022-08-14T05:29:19.023Z,97757.19
2022-08-14T05:32:14.092Z,97756.25
2022-08-14T05:35:06.226Z,97751.09
2022-08-14T05:37:51.173Z,97756.34
2022-08-14T05:40:39.251Z,97744.16
2022-08-14T05:43:23.932Z,97749.28
2022-08-14T05:46:23.975Z,97753.44
2022-08-14T05:49:13.102Z,97762.41
2022-08-14T05:52:02.486Z,97753.97
2022-08-14T05:54:50.955Z,97759.75
2022-08-14T05:57:39.372Z,97753.19
2022-08-14T06:00:28.948Z,97756.34
2022-08-14T06:03:20.030Z,97748.59
2022-08-14T06:06:10.228Z,97755.81
2022-08-14T06:08:53.122Z,97753.25
2022-08-14T06:11:42.928Z,97750.09
2022-08-14T06:14:32.320Z,97742.56
2022-08-14T06:17:15.706Z,97738.34
2022-08-14T06:20:10.272Z,97738.06
2022-08-14T06:23:00.196Z,97736.84
2022-08-14T06:25:52.693Z,97730.94
2022-08-14T06:28:34.930Z,97726.06
2022-08-14T06:31:17.261Z,97728.09
2022-08-14T06:35:04.755Z,97722.88
2022-08-14T06:37:21.100Z,97727.38
2022-08-14T06:40:25.429Z,97723.16
2022-08-14T06:43:15.394Z,97716.34
2022-08-14T06:46:04.142Z,97708.97
2022-08-14T06:48:46.667Z,97714.91
2022-08-14T06:51:38.738Z,97716.88
2022-08-14T06:54:33.269Z,97712.03
2022-08-14T06:57:15.946Z,97706.53
2022-08-14T07:00:04.948Z,97699.78
2022-08-14T07:03:06.658Z,97707.81
2022-08-14T07:06:01.189Z,97714.38
2022-08-14T07:08:54.842Z,97707.53
2022-08-14T07:11:43.284Z,97699.16
2022-08-14T07:14:26.947Z,97698.41
2022-08-14T07:17:09.291Z,97692.84
2022-08-14T07:19:57.941Z,97700.31
2022-08-14T07:22:49.852Z,97681.03
2022-08-14T07:25:37.614Z,97685.66
2022-08-14T07:28:43.632Z,97692.00
2022-08-14T07:31:34.081Z,97680.75
2022-08-14T07:34:40.959Z,97677.13
2022-08-14T07:37:37.180Z,97675.47
2022-08-14T07:40:27.656Z,97670.22
2022-08-14T07:43:14.444Z,97671.81
2022-08-14T07:45:57.237Z,97654.31
2022-08-14T07:48:45.928Z,97654.63
2022-08-14T07:51:37.289Z,97650.75
2022-08-14T07:54:23.286Z,97642.19
2022-08-14T07:57:24.710Z,97645.66
2022-08-14T08:00:07.915Z,97645.72
2022-08-14T08:03:00.547Z,97637.56
2022-08-14T08:05:42.829Z,97640.88
2022-08-14T08:08:35.161Z,97637.22
2022-08-14T08:11:20.515Z,97633.56
2022-08-14T08:14:17.270Z,97628.53
2022-08-14T08:17:07.182Z,97623.38
2022-08-14T08:19:56.201Z,97623.47
2022-08-14T08:22:38.716Z,97624.69
2022-08-14T08:25:26.991Z,97627.94
2022-08-14T08:28:26.473Z,97629.41
2022-08-14T08:31:08.824Z,97620.38
2022-08-14T08:33:57.874Z,97617.69
2022-08-14T08:36:57.797Z,97611.09
2022-08-14T08:40:04.307Z,97602.53
2022-08-14T08:42:54.247Z,97597.03
2022-08-14T08:45:44.943Z,97590.47
2022-08-14T08:48:41.348Z,97581.97
2022-08-14T08:51:43.954Z,97572.56
2022-08-14T08:54:30.869Z,97569.84
2022-08-14T08:57:29.189Z,97567.63
2022-08-14T09:00:25.196Z,97564.84
2022-08-14T09:03:25.185Z,97552.41
2022-08-14T09:06:23.293Z,97543.59
2022-08-14T09:09:18.192Z,97538.53
2022-08-14T09:12:04.358Z,97532.63
2022-08-14T09:14:54.951Z,97531.38
2022-08-14T09:17:37.638Z,97530.34
2022-08-14T09:20:30.609Z,97521.69
2022-08-14T09:23:27.460Z,97522.41
2022-08-14T09:26:22.801Z,97516.63
2022-08-14T09:29:17.929Z,97508.59
2022-08-14T09:32:58.633Z,97513.78
2022-08-14T09:35:35.843Z,97513.34
2022-08-14T09:39:06.074Z,97503.19
2022-08-14T09:42:33.983Z,97497.78
2022-08-14T09:45:26.087Z,97494.97
2022-08-14T09:48:27.449Z,97494.16
2022-08-14T09:51:44.710Z,97498.03
2022-08-14T09:54:45.456Z,97496.88
2022-08-14T09:57:37.869Z,97498.25
2022-08-14T10:00:42.204Z,97493.09
2022-08-14T10:03:40.930Z,97488.59
2022-08-14T10:06:35.207Z,97493.28
2022-08-14T10:09:17.073Z,97483.59
2022-08-14T10:12:00.769Z,97487.94
2022-08-14T10:14:53.237Z,97484.16
2022-08-14T10:17:38.859Z,97494.31
2022-08-14T10:20:42.145Z,97495.03
2022-08-14T10:23:35.524Z,97484.69
2022-08-14T10:26:22.462Z,97484.72
2022-08-14T10:29:32.032Z,97474.28
2022-08-14T10:32:28.715Z,97474.59
2022-08-14T10:35:22.475Z,97466.66
2022-08-14T10:38:12.141Z,97463.25
2022-08-14T10:41:08.029Z,97460.31
2022-08-14T10:44:20.951Z,97460.72
2022-08-14T10:47:40.065Z,97466.66
2022-08-14T10:50:24.202Z,97465.78
2022-08-14T10:53:08.512Z,97469.59
2022-08-14T10:55:57.170Z,97468.53
2022-08-14T10:58:46.188Z,97450.03
2022-08-14T11:01:40.805Z,97459.34
2022-08-14T11:04:39.119Z,97465.19
2022-08-14T11:07:27.226Z,97469.78
2022-08-14T11:10:12.952Z,97456.88
2022-08-14T11:12:58.808Z,97449.63
2022-08-14T11:15:47.929Z,97459.09
2022-08-14T11:18:40.434Z,97456.53
2022-08-14T11:21:30.229Z,97459.47
2022-08-14T11:24:51.018Z,97452.38
2022-08-14T11:27:35.283Z,97448.28
2022-08-14T11:30:50.639Z,97451.81
2022-08-14T11:33:32.538Z,97458.72
2022-08-14T11:36:18.016Z,97441.28
2022-08-14T11:39:09.813Z,97441.22
2022-08-14T11:42:57.377Z,97450.66
2022-08-14T11:45:17.101Z,97452.66
2022-08-14T11:48:12.901Z,97455.44
2022-08-14T11:51:30.722Z,97455.19
2022-08-14T11:54:15.174Z,97468.81
2022-08-14T11:57:02.312Z,97490.84
2022-08-14T11:59:56.051Z,97486.56
2022-08-14T12:03:03.043Z,97484.25
2022-08-14T12:05:54.949Z,97492.75
2022-08-14T12:08:44.931Z,97503.03
2022-08-14T12:11:29.005Z,97501.34
2022-08-14T12:14:29.722Z,97495.59
2022-08-14T12:17:17.126Z,97500.19
2022-08-14T12:20:15.062Z,97507.06
2022-08-14T12:22:57.666Z,97501.94
2022-08-14T12:25:45.970Z,97512.06
2022-08-14T12:28:59.482Z,97517.81
2022-08-14T12:31:51.540Z,97515.81
2022-08-14T12:39:40.151Z,97515.63
2022-08-14T12:42:34.883Z,97525.69
2022-08-14T12:45:20.859Z,97525.75
2022-08-14T12:48:20.731Z,97525.69
2022-08-14T12:51:10.933Z,97526.06
2022-08-14T12:53:54.933Z,97537.56
2022-08-14T12:56:48.251Z,97550.38
2022-08-14T12:59:43.162Z,97558.75
2022-08-14T13:02:34.261Z,97567.50
2022-08-14T13:05:27.526Z,97579.84
2022-08-14T13:08:34.009Z,97582.59
2022-08-14T13:11:23.831Z,97589.38
2022-08-14T13:14:08.237Z,97589.00
2022-08-14T13:17:07.145Z,97585.47
2022-08-14T13:19:53.037Z,97577.09
2022-08-14T13:22:46.196Z,97573.31
2022-08-14T13:25:31.985Z,97580.63
2022-08-14T13:28:29.924Z,97596.91
2022-08-14T13:31:24.238Z,97603.28
2022-08-14T13:34:21.464Z,97595.34
2022-08-14T13:37:06.993Z,97595.56
2022-08-14T13:40:04.154Z,97601.09
2022-08-14T13:43:01.186Z,97605.03
2022-08-14T13:45:59.948Z,97611.81
2022-08-14T13:48:50.186Z,97615.84
2022-08-14T13:51:47.390Z,97612.22
2022-08-14T13:54:31.962Z,97613.44
2022-08-14T13:57:22.926Z,97609.44
2022-08-14T14:00:21.753Z,97606.72
2022-08-14T14:03:22.806Z,97603.09
2022-08-14T14:06:06.143Z,97588.38
2022-08-14T14:08:59.011Z,97581.91
2022-08-14T14:11:48.057Z,97596.31
2022-08-14T14:14:51.431Z,97599.88
2022-08-14T14:17:44.083Z,97598.31
2022-08-14T14:20:34.589Z,97593.88
2022-08-14T14:23:21.839Z,97590.69
2022-08-14T14:26:04.982Z,97587.91
2022-08-14T14:28:54.734Z,97586.72
2022-08-14T14:31:39.029Z,97592.78
2022-08-14T14:34:31.177Z,97593.88
2022-08-14T14:37:15.301Z,97601.94
2022-08-14T14:40:52.591Z,97612.25
2022-08-14T14:43:26.017Z,97614.59
2022-08-14T14:46:36.610Z,97629.38
2022-08-14T14:49:42.019Z,97623.44
2022-08-14T14:52:45.952Z,97625.03
2022-08-14T14:55:54.407Z,97625.81
2022-08-14T14:58:39.491Z,97623.03
2022-08-14T15:01:30.853Z,97624.22
2022-08-14T15:04:20.638Z,97633.34
2022-08-14T15:07:12.421Z,97636.53
2022-08-14T15:09:55.393Z,97640.91
2022-08-14T15:12:56.026Z,97656.88
2022-08-14T15:15:42.458Z,97645.31
2022-08-14T15:18:36.825Z,97635.34
2022-08-14T15:21:28.156Z,97642.94
2022-08-14T15:24:21.135Z,97642.94
2022-08-14T15:27:14.165Z,97647.31
2022-08-14T15:30:08.375Z,97652.88
2022-08-14T15:32:56.803Z,97656.88
2022-08-14T15:35:44.886Z,97677.16
2022-08-14T15:38:41.024Z,97677.53
2022-08-14T15:41:33.675Z,97684.72
2022-08-14T15:44:36.787Z,97690.28
2022-08-14T15:47:43.058Z,97693.09
2022-08-14T15:50:27.127Z,97691.50
2022-08-14T15:53:17.189Z,97694.28
2022-08-14T15:55:59.109Z,97688.72
2022-08-14T15:58:47.999Z,97687.91
2022-08-14T16:01:53.550Z,97693.47
2022-08-14T16:04:41.272Z,97686.28
2022-08-14T16:07:30.206Z,97682.69
2022-08-14T16:10:28.663Z,97691.88
2022-08-14T16:13:12.939Z,97682.72
2022-08-14T16:16:34.492Z,97685.09
2022-08-14T16:19:11.132Z,97679.53
2022-08-14T16:22:58.322Z,97677.13
2022-08-14T16:25:06.307Z,97685.09
2022-08-14T16:27:55.820Z,97670.38
2022-08-14T16:30:38.522Z,97673.56
2022-08-14T16:33:59.640Z,97666.00
2022-08-14T16:36:35.281Z,97665.66
2022-08-14T16:39:28.609Z,97664.78
2022-08-14T16:42:39.326Z,97681.50
2022-08-14T16:45:22.212Z,97688.25
2022-08-14T16:48:54.781Z,97694.22
2022-08-14T16:51:28.252Z,97699.00
2022-08-14T16:54:20.780Z,97703.78
2022-08-14T16:57:31.581Z,97714.91
2022-08-14T17:00:27.997Z,97714.47
2022-08-14T17:03:17.834Z,97720.47
2022-08-14T17:06:30.544Z,97730.84
2022-08-14T17:09:35.373Z,97738.75
2022-08-14T17:12:33.963Z,97738.56
2022-08-14T17:15:17.657Z,97743.53
2022-08-14T17:18:07.880Z,97752.28
2022-08-14T17:21:19.463Z,97751.31
2022-08-14T17:24:58.319Z,97752.66
2022-08-14T17:27:29.585Z,97753.84
2022-08-14T17:30:32.839Z,97751.44
2022-08-14T17:33:20.146Z,97757.41
2022-08-14T17:36:45.074Z,97753.47
2022-08-14T17:39:39.979Z,97764.97
2022-08-14T17:42:32.792Z,97769.56
2022-08-14T17:45:49.882Z,97768.91
2022-08-14T17:49:14.970Z,97770.53
2022-08-14T17:52:34.326Z,97781.53
2022-08-14T17:56:00.891Z,97788.63
2022-08-14T17:58:29.815Z,97784.75
2022-08-14T18:01:26.939Z,97784.28
2022-08-14T18:04:24.442Z,97774.25
2022-08-14T18:08:33.227Z,97785.19
2022-08-14T18:10:54.903Z,97785.78
2022-08-14T18:13:51.622Z,97786.22
2022-08-14T18:16:42.196Z,97790.53
2022-08-14T18:19:34.482Z,97799.38
2022-08-14T18:22:31.316Z,97809.94
2022-08-14T18:25:23.396Z,97802.28
2022-08-14T18:28:16.108Z,97800.34
2022-08-14T18:31:23.335Z,97808.59
2022-08-14T18:34:32.102Z,97802.16
2022-08-14T18:37:22.128Z,97799.97
2022-08-14T18:40:34.282Z,97797.41
2022-08-14T18:43:59.434Z,97788.44
2022-08-14T18:47:16.294Z,97776.91
2022-08-14T18:50:26.074Z,97780.31
2022-08-14T18:53:24.642Z,97776.66
2022-08-14T18:56:20.150Z,97767.91
2022-08-14T18:59:09.706Z,97762.41
2022-08-14T19:01:56.179Z,97769.22
2022-08-14T19:04:46.157Z,97792.09
2022-08-14T19:07:36.214Z,97790.63
2022-08-14T19:10:37.380Z,97783.75
2022-08-14T19:13:44.804Z,97774.13
2022-08-14T19:16:48.313Z,97756.69
2022-08-14T19:19:53.089Z,97766.41
2022-08-14T19:22:48.045Z,97751.06
2022-08-14T19:26:01.811Z,97767.44
2022-08-14T19:29:35.896Z,97823.00
2022-08-14T19:32:55.673Z,97847.59
2022-08-14T19:35:49.688Z,97838.06
2022-08-14T19:39:14.066Z,97821.66
2022-08-14T19:42:10.569Z,97828.94
2022-08-14T19:44:56.907Z,97847.81
2022-08-14T19:47:49.939Z,97859.25
2022-08-14T19:50:45.184Z,97850.91
2022-08-14T19:53:27.372Z,97857.31
2022-08-14T19:56:29.150Z,97851.34
2022-08-14T19:59:18.255Z,97847.28
2022-08-14T20:02:03.080Z,97855.66
2022-08-14T20:05:04.219Z,97854.78
2022-08-14T20:07:59.758Z,97857.09
2022-08-14T20:11:06.554Z,97867.31
2022-08-14T20:14:23.607Z,97848.56
2022-08-14T20:17:16.803Z,97842.72
2022-08-14T20:20:06.968Z,97830.69
2022-08-14T20:22:56.202Z,97828.59
2022-08-14T20:25:55.617Z,97819.59
2022-08-14T20:28:51.598Z,97800.97
2022-08-14T20:31:37.004Z,97779.75
2022-08-14T20:34:36.171Z,97771.66
2022-08-14T20:37:22.503Z,97759.88
2022-08-14T20:40:23.236Z,97762.50
2022-08-14T20:43:53.828Z,97775.06
2022-08-14T20:46:53.813Z,97765.84
2022-08-14T20:49:37.478Z,97773.31
2022-08-14T20:52:25.834Z,97784.19
2022-08-14T20:55:36.182Z,97780.81
2022-08-14T20:58:48.000Z,97794.81
2022-08-14T21:01:40.123Z,97787.59
2022-08-14T21:04:47.317Z,97767.56
2022-08-14T21:07:36.791Z,97762.16
2022-08-14T21:10:34.216Z,97748.78
2022-08-14T21:13:29.101Z,97745.75
2022-08-14T21:16:33.487Z,97759.56
2022-08-14T21:19:27.907Z,97760.75
2022-08-14T21:22:10.471Z,97761.22
2022-08-14T21:25:02.214Z,97763.78
2022-08-14T21:27:57.242Z,97770.38
2022-08-14T21:30:51.723Z,97776.06
2022-08-14T21:33:35.141Z,97783.19
2022-08-14T21:36:26.205Z,97778.91
2022-08-14T21:39:20.356Z,97786.75
2022-08-14T21:42:10.959Z,97784.78
2022-08-14T21:44:59.847Z,97778.47
2022-08-14T21:47:43.630Z,97787.41
2022-08-14T21:51:00.859Z,97785.38
2022-08-14T21:53:35.393Z,97787.31
2022-08-14T21:56:38.423Z,97786.34
2022-08-14T21:59:39.754Z,97781.41
2022-08-14T22:02:32.202Z,97789.22
2022-08-14T22:05:26.061Z,97789.97
2022-08-14T22:08:14.354Z,97789.75
2022-08-14T22:11:05.825Z,97785.75
2022-08-14T22:13:52.612Z,97784.88
2022-08-14T22:17:01.779Z,97776.50
2022-08-14T22:19:54.273Z,97777.81
2022-08-14T22:22:44.073Z,97775.13
2022-08-14T22:25:40.949Z,97769.22
2022-08-14T22:28:33.276Z,97775.63
2022-08-14T22:31:26.064Z,97782.25
2022-08-14T22:34:17.361Z,97775.88
2022-08-14T22:37:08.068Z,97781.09
2022-08-14T22:40:54.733Z,97780.94
2022-08-14T22:43:07.999Z,97777.03
2022-08-14T22:45:55.257Z,97775.03
2022-08-14T22:48:45.309Z,97774.53
2022-08-14T22:51:48.183Z,97766.53
2022-08-14T22:54:52.319Z,97772.06
2022-08-14T22:57:43.498Z,97769.22
2022-08-14T23:00:32.481Z,97780.06
2022-08-14T23:03:22.072Z,97772.06
2022-08-14T23:07:02.052Z,97767.84
2022-08-14T23:09:35.939Z,97767.69
2022-08-14T23:12:28.541Z,97778.16
2022-08-14T23:15:11.207Z,97771.31
2022-08-14T23:17:59.919Z,97772.50
2022-08-14T23:20:45.107Z,97770.81
2022-08-14T23:23:34.048Z,97776.16
2022-08-14T23:26:47.053Z,97776.31
2022-08-14T23:29:32.922Z,97780.41
2022-08-14T23:32:18.950Z,97778.16
2022-08-14T23:35:07.827Z,97793.13
2022-08-14T23:37:54.014Z,97793.63
2022-08-14T23:40:45.928Z,97802.13
2022-08-14T23:43:31.180Z,97801.84
2022-08-14T23:46:21.941Z,97814.53
2022-08-14T23:49:21.377Z,97824.94
2022-08-14T23:52:51.015Z,97826.78
2022-08-14T23:55:19.910Z,97835.47
2022-08-14T23:58:29.586Z,97842.47
